createdAt,value
2022-09-01T00:01:53.576Z,102111.94
2022-09-01T00:04:28.062Z,102110.00
2022-09-01T00:07:02.309Z,102106.84
2022-09-01T00:09:36.219Z,102097.31
2022-09-01T00:12:10.389Z,102106.47
2022-09-01T00:14:44.193Z,102107.34
2022-09-01T00:17:16.965Z,102107.31
2022-09-01T00:19:49.753Z,102101.81
2022-09-01T00:22:23.818Z,102102.56
2022-09-01T00:24:56.876Z,102100.59
2022-09-01T00:27:30.851Z,102093.41
2022-09-01T00:30:04.515Z,102105.31
2022-09-01T00:32:37.565Z,102097.78
2022-09-01T00:35:10.506Z,102093.09
2022-09-01T00:37:44.596Z,102104.25
2022-09-01T00:40:19.288Z,102103.03
2022-09-01T00:42:53.808Z,102100.25
2022-09-01T00:45:26.882Z,102091.53
2022-09-01T00:47:59.592Z,102092.72
2022-09-01T00:50:33.282Z,102095.53
2022-09-01T00:53:09.443Z,102084.03
2022-09-01T00:55:42.835Z,102085.22
2022-09-01T00:58:19.661Z,102080.03
2022-09-01T01:00:54.716Z,102079.75
2022-09-01T01:03:27.904Z,102077.66
2022-09-01T01:06:05.008Z,102087.28
2022-09-01T01:08:44.436Z,102081.66
2022-09-01T01:11:17.947Z,102076.53
2022-09-01T01:13:54.658Z,102078.09
2022-09-01T01:16:29.569Z,102076.50
2022-09-01T01:19:02.535Z,102068.97
2022-09-01T01:21:55.881Z,102076.91
2022-09-01T01:24:34.167Z,102074.56
2022-09-01T01:27:06.972Z,102069.75
2022-09-01T01:29:40.211Z,102073.00
2022-09-01T01:32:14.363Z,102075.81
2022-09-01T01:34:48.856Z,102068.63
2022-09-01T01:37:24.008Z,102074.59
2022-09-01T01:39:58.513Z,102069.41
2022-09-01T01:42:33.630Z,102071.81
2022-09-01T01:45:08.091Z,102071.06
2022-09-01T01:47:41.095Z,102068.66
2022-09-01T01:50:15.079Z,102071.03
2022-09-01T01:52:49.770Z,102071.03
2022-09-01T01:55:33.071Z,102077.81
2022-09-01T01:58:09.873Z,102069.44
2022-09-01T02:00:47.458Z,102072.66
2022-09-01T02:03:25.084Z,102072.66
2022-09-01T02:06:04.726Z,102072.66
2022-09-01T02:08:40.772Z,102067.50
2022-09-01T02:11:17.276Z,102062.72
2022-09-01T02:13:56.198Z,102063.91
2022-09-01T02:16:32.637Z,102063.94
2022-09-01T02:19:08.909Z,102062.34
2022-09-01T02:21:44.633Z,102061.59
2022-09-01T02:24:17.414Z,102064.34
2022-09-01T02:26:51.798Z,102059.94
2022-09-01T02:29:29.991Z,102064.75
2022-09-01T02:32:07.052Z,102057.59
2022-09-01T02:34:40.831Z,102053.63
2022-09-01T02:37:13.625Z,102056.81
2022-09-01T02:39:46.516Z,102051.25
2022-09-01T02:42:24.148Z,102046.47
2022-09-01T02:44:58.761Z,102048.47
2022-09-01T02:47:31.537Z,102049.66
2022-09-01T02:50:04.951Z,102055.19
2022-09-01T02:52:39.948Z,102046.47
2022-09-01T02:55:14.073Z,102049.25
2022-09-01T02:57:49.397Z,102046.03
2022-09-01T03:00:28.994Z,102044.47
2022-09-01T03:03:03.048Z,102039.72
2022-09-01T03:05:39.178Z,102040.50
2022-09-01T03:08:16.359Z,102037.72
2022-09-01T03:10:49.529Z,102033.78
2022-09-01T03:13:25.292Z,102034.56
2022-09-01T03:15:58.065Z,102033.38
2022-09-01T03:18:30.778Z,102034.59
2022-09-01T03:21:04.158Z,102031.78
2022-09-01T03:23:38.075Z,102029.00
2022-09-01T03:26:11.376Z,102040.50
2022-09-01T03:28:45.954Z,102034.16
2022-09-01T03:31:19.940Z,102035.00
2022-09-01T03:33:54.467Z,102029.41
2022-09-01T03:36:33.933Z,102022.69
2022-09-01T03:39:14.635Z,102025.84
2022-09-01T03:41:49.910Z,102017.91
2022-09-01T03:44:24.318Z,102022.66
2022-09-01T03:46:58.422Z,102015.53
2022-09-01T03:49:31.181Z,102019.50
2022-09-01T03:52:04.499Z,102019.50
2022-09-01T03:54:37.502Z,102021.09
2022-09-01T03:57:10.575Z,102019.09
2022-09-01T03:59:48.182Z,102025.84
2022-09-01T04:02:22.953Z,102024.25
2022-09-01T04:04:58.987Z,102018.72
2022-09-01T04:07:31.877Z,102024.25
2022-09-01T04:10:05.302Z,102015.53
2022-09-01T04:12:38.715Z,102018.69
2022-09-01T04:15:14.829Z,102020.28
2022-09-01T04:18:09.748Z,102017.13
2022-09-01T04:20:49.452Z,102016.31
2022-09-01T04:23:27.220Z,102015.13
2022-09-01T04:26:08.914Z,102022.66
2022-09-01T04:28:45.603Z,102019.09
2022-09-01T04:31:21.959Z,102020.69
2022-09-01T04:33:56.533Z,102019.50
2022-09-01T04:36:33.975Z,102021.88
2022-09-01T04:39:09.487Z,102018.69
2022-09-01T04:41:46.873Z,102020.66
2022-09-01T04:44:20.162Z,102011.16
2022-09-01T04:46:55.369Z,102018.25
2022-09-01T04:49:33.774Z,102015.47
2022-09-01T04:52:06.727Z,102010.72
2022-09-01T04:54:40.303Z,102015.09
2022-09-01T04:57:13.377Z,102019.44
2022-09-01T04:59:46.825Z,102019.84
2022-09-01T05:02:27.249Z,102018.66
2022-09-01T05:05:00.519Z,102018.25
2022-09-01T05:07:37.534Z,102014.66
2022-09-01T05:10:10.912Z,102011.91
2022-09-01T05:13:09.875Z,102013.88
2022-09-01T05:15:46.552Z,102004.78
2022-09-01T05:18:23.394Z,102011.09
2022-09-01T05:20:57.578Z,102007.91
2022-09-01T05:23:32.040Z,102014.25
2022-09-01T05:26:14.685Z,102011.09
2022-09-01T05:28:49.485Z,102012.28
2022-09-01T05:31:23.122Z,102007.91
2022-09-01T05:33:58.135Z,102015.44
2022-09-01T05:36:33.701Z,102010.28
2022-09-01T05:39:08.060Z,102013.06
2022-09-01T05:41:42.307Z,102012.28
2022-09-01T05:44:16.684Z,102011.47
2022-09-01T05:46:50.613Z,102006.31
2022-09-01T05:49:26.112Z,102014.63
2022-09-01T05:51:58.965Z,102010.66
2022-09-01T05:54:33.834Z,102011.84
2022-09-01T05:57:30.343Z,102005.06
2022-09-01T06:00:00.307Z,102007.47
2022-09-01T06:02:33.790Z,102013.81
2022-09-01T06:05:09.566Z,102009.06
2022-09-01T06:07:44.253Z,102015.41
2022-09-01T06:10:18.057Z,102005.91
2022-09-01T06:12:54.473Z,102015.81
2022-09-01T06:15:29.492Z,102013.41
2022-09-01T06:18:02.989Z,102018.94
2022-09-01T06:20:42.945Z,102016.19
2022-09-01T06:23:18.757Z,102021.72
2022-09-01T06:25:51.974Z,102012.97
2022-09-01T06:28:29.515Z,102011.41
2022-09-01T06:31:07.253Z,102009.81
2022-09-01T06:33:40.311Z,102017.38
2022-09-01T06:36:15.892Z,102009.84
2022-09-01T06:38:51.764Z,102017.75
2022-09-01T06:41:25.959Z,102014.59
2022-09-01T06:44:03.201Z,102017.75
2022-09-01T06:46:36.196Z,102022.13
2022-09-01T06:49:11.598Z,102022.50
2022-09-01T06:51:51.777Z,102020.13
2022-09-01T06:54:26.556Z,102019.38
2022-09-01T06:57:00.481Z,102020.97
2022-09-01T06:59:34.972Z,102028.09
2022-09-01T07:12:24.296Z,102029.31
2022-09-01T07:17:42.362Z,102028.94
2022-09-01T07:20:30.975Z,102030.94
2022-09-01T07:23:06.455Z,102030.63
2022-09-01T07:26:02.580Z,102022.69
2022-09-01T07:28:38.808Z,102034.56
2022-09-01T07:39:57.368Z,102025.75
2022-09-01T07:43:22.253Z,102024.66
2022-09-01T07:46:41.798Z,102027.41
2022-09-01T07:50:08.450Z,102037.69
2022-09-01T07:52:12.653Z,102037.72
2022-09-01T07:54:49.067Z,102034.53
2022-09-01T07:57:23.023Z,102032.50
2022-09-01T07:59:57.663Z,102032.09
2022-09-01T08:02:47.560Z,102034.03
2022-09-01T08:05:26.900Z,102028.03
2022-09-01T08:08:01.101Z,102033.53
2022-09-01T08:10:39.950Z,102037.50
2022-09-01T08:13:15.853Z,102039.84
2022-09-01T08:16:07.161Z,102037.75
2022-09-01T08:18:49.479Z,102038.91
2022-09-01T08:21:34.065Z,102041.25
2022-09-01T08:24:27.609Z,102041.13
2022-09-01T08:27:00.398Z,102045.03
2022-09-01T08:29:33.655Z,102039.75
2022-09-01T08:32:08.193Z,102050.41
2022-09-01T08:34:43.504Z,102045.56
2022-09-01T08:37:16.885Z,102039.06
2022-09-01T08:42:58.380Z,102039.69
2022-09-01T08:45:34.303Z,102045.16
2022-09-01T08:51:20.932Z,102048.44
2022-09-01T08:54:18.073Z,102043.09
2022-09-01T08:57:06.979Z,102046.16
2022-09-01T08:59:59.027Z,102042.75
2022-09-01T09:02:49.891Z,102033.81
2022-09-01T09:05:44.304Z,102046.41
2022-09-01T09:08:44.600Z,102046.16
2022-09-01T09:11:35.903Z,102034.53
2022-09-01T09:14:16.131Z,102046.63
2022-09-01T09:16:53.919Z,102039.25
2022-09-01T09:19:31.237Z,102043.69
2022-09-01T09:22:11.319Z,102033.16
2022-09-01T09:28:03.022Z,102022.69
2022-09-01T09:30:35.904Z,102025.63
2022-09-01T09:33:47.722Z,102024.56
2022-09-01T09:36:20.414Z,102023.19
2022-09-01T09:39:13.121Z,102028.06
2022-09-01T09:42:07.665Z,102026.97
2022-09-01T09:44:45.389Z,102022.63
2022-09-01T09:47:44.223Z,102022.47
2022-09-01T09:50:25.633Z,102019.22
2022-09-01T09:53:26.948Z,102020.47
2022-09-01T09:56:05.705Z,102017.88
2022-09-01T09:58:42.808Z,102010.75
2022-09-01T10:01:30.187Z,102023.34
2022-09-01T10:04:04.246Z,102032.09
2022-09-01T10:06:41.537Z,102022.94
2022-09-01T10:09:17.989Z,102022.56
2022-09-01T10:11:54.611Z,102019.16
2022-09-01T10:14:53.197Z,102020.41
2022-09-01T10:17:32.413Z,102009.78
2022-09-01T10:20:11.398Z,102013.50
2022-09-01T10:22:44.969Z,102015.81
2022-09-01T10:25:21.682Z,102010.63
2022-09-01T10:28:00.379Z,102008.69
2022-09-01T10:30:33.533Z,102012.44
2022-09-01T10:33:11.831Z,102010.63
2022-09-01T10:35:54.047Z,102002.63
2022-09-01T10:38:29.124Z,102005.41
2022-09-01T10:41:09.101Z,101999.28
2022-09-01T10:43:50.496Z,101993.84
2022-09-01T10:46:50.922Z,101992.09
2022-09-01T10:49:59.839Z,101991.75
2022-09-01T10:53:00.265Z,102003.53
2022-09-01T10:55:46.463Z,101998.94
2022-09-01T11:05:14.815Z,101982.13
2022-09-01T11:08:00.324Z,101978.72
2022-09-01T11:10:56.114Z,101981.91
2022-09-01T11:13:38.647Z,101987.59
2022-09-01T11:19:41.473Z,101980.75
2022-09-01T11:22:38.119Z,101979.25
2022-09-01T11:25:40.768Z,101972.34
2022-09-01T11:28:38.966Z,101975.66
2022-09-01T11:31:20.900Z,101969.28
2022-09-01T11:34:04.244Z,101969.25
2022-09-01T11:36:48.580Z,101972.59
2022-09-01T11:39:43.787Z,101971.94
2022-09-01T11:42:24.323Z,101970.66
2022-09-01T11:45:03.049Z,101973.31
2022-09-01T11:47:39.789Z,101968.31
2022-09-01T11:50:20.267Z,101966.94
2022-09-01T11:53:01.317Z,101970.22
2022-09-01T11:55:40.033Z,101967.06
2022-09-01T11:58:17.913Z,101953.56
2022-09-01T12:00:50.819Z,101968.31
2022-09-01T12:03:26.916Z,101968.28
2022-09-01T12:06:02.804Z,101962.16
2022-09-01T12:08:39.318Z,101958.97
2022-09-01T12:11:14.379Z,101958.81
2022-09-01T12:13:57.309Z,101953.84
2022-09-01T12:16:32.616Z,101958.72
2022-09-01T12:19:07.069Z,101954.47
2022-09-01T12:21:42.699Z,101947.06
2022-09-01T12:24:20.737Z,101954.53
2022-09-01T12:26:55.752Z,101944.38
2022-09-01T12:29:32.005Z,101947.25
2022-09-01T12:32:05.805Z,101943.84
2022-09-01T12:34:42.440Z,101944.78
2022-09-01T12:37:23.443Z,101954.19
2022-09-01T12:39:59.361Z,101945.47
2022-09-01T12:42:40.942Z,101945.09
2022-09-01T12:45:14.466Z,101938.16
2022-09-01T12:47:50.571Z,101942.97
2022-09-01T12:50:43.637Z,101944.06
2022-09-01T12:53:21.350Z,101944.94
2022-09-01T12:56:00.746Z,101944.25
2022-09-01T12:58:34.034Z,101950.03
2022-09-01T13:01:16.443Z,101938.00
2022-09-01T13:04:08.898Z,101935.22
2022-09-01T13:06:42.332Z,101938.16
2022-09-01T13:09:15.108Z,101927.16
2022-09-01T13:12:06.337Z,101933.47
2022-09-01T13:14:39.770Z,101937.69
2022-09-01T13:17:14.682Z,101934.66
2022-09-01T13:19:47.582Z,101932.00
2022-09-01T13:22:20.279Z,101924.06
2022-09-01T13:24:53.073Z,101923.25
2022-09-01T13:27:27.644Z,101920.97
2022-09-01T13:30:00.400Z,101920.69
2022-09-01T13:32:33.547Z,101925.84
2022-09-01T13:35:07.304Z,101922.72
2022-09-01T13:37:40.027Z,101909.03
2022-09-01T13:40:15.665Z,101912.66
2022-09-01T13:42:54.801Z,101916.16
2022-09-01T13:45:28.553Z,101913.38
2022-09-01T13:48:18.811Z,101901.63
2022-09-01T13:53:46.608Z,101888.63
2022-09-01T13:56:19.463Z,101900.84
2022-09-01T13:58:53.583Z,101904.53
2022-09-01T14:01:26.336Z,101903.69
2022-09-01T14:04:02.874Z,101888.28
2022-09-01T14:06:40.855Z,101896.00
2022-09-01T14:09:17.590Z,101888.91
2022-09-01T14:11:54.202Z,101887.06
2022-09-01T14:15:10.694Z,101895.84
2022-09-01T14:17:21.533Z,101889.16
2022-09-01T14:19:54.501Z,101888.19
2022-09-01T14:22:27.266Z,101883.09
2022-09-01T14:25:00.409Z,101880.94
2022-09-01T14:27:33.276Z,101876.19
2022-09-01T14:30:10.606Z,101874.25
2022-09-01T14:32:43.396Z,101874.97
2022-09-01T14:35:17.707Z,101875.69
2022-09-01T14:37:50.410Z,101862.66
2022-09-01T14:40:24.783Z,101866.47
2022-09-01T14:42:57.647Z,101859.72
2022-09-01T14:45:32.632Z,101860.50
2022-09-01T14:48:06.275Z,101852.81
2022-09-01T14:50:42.324Z,101865.47
2022-09-01T14:53:15.551Z,101850.69
2022-09-01T14:55:55.565Z,101843.88
2022-09-01T14:58:30.321Z,101840.34
2022-09-01T15:01:23.521Z,101847.69
2022-09-01T15:03:57.081Z,101843.78
2022-09-01T15:06:30.146Z,101851.06
2022-09-01T15:09:03.584Z,101840.28
2022-09-01T15:11:36.465Z,101843.69
2022-09-01T15:14:17.399Z,101838.97
2022-09-01T15:16:51.828Z,101825.50
2022-09-01T15:19:25.072Z,101829.88
2022-09-01T15:21:57.816Z,101827.25
2022-09-01T15:24:30.575Z,101823.03
2022-09-01T15:27:03.549Z,101822.47
2022-09-01T15:29:44.846Z,101821.06
2022-09-01T15:32:20.824Z,101817.13
2022-09-01T15:35:01.253Z,101815.38
2022-09-01T15:37:34.028Z,101817.91
2022-09-01T15:40:08.379Z,101816.69
2022-09-01T15:42:41.145Z,101815.28
2022-09-01T15:45:17.244Z,101814.66
2022-09-01T15:47:51.720Z,101803.78
2022-09-01T15:50:27.635Z,101807.63
2022-09-01T15:53:02.875Z,101806.16
2022-09-01T15:55:40.884Z,101795.63
2022-09-01T15:58:15.721Z,101801.22
2022-09-01T16:00:48.760Z,101804.16
2022-09-01T16:03:24.312Z,101795.66
2022-09-01T16:05:57.090Z,101799.28
2022-09-01T16:08:30.536Z,101788.28
2022-09-01T16:11:09.602Z,101796.50
2022-09-01T16:13:43.397Z,101787.13
2022-09-01T16:16:42.614Z,101788.09
2022-09-01T16:19:28.290Z,101786.94
2022-09-01T16:22:10.953Z,101787.16
2022-09-01T16:24:46.026Z,101783.94
2022-09-01T16:27:22.236Z,101777.81
2022-09-01T16:29:57.292Z,101783.91
2022-09-01T16:32:31.473Z,101775.50
2022-09-01T16:35:06.939Z,101773.75
2022-09-01T16:37:47.057Z,101775.78
2022-09-01T16:40:35.260Z,101773.22
2022-09-01T16:43:16.219Z,101762.00
2022-09-01T16:45:58.289Z,101770.22
2022-09-01T16:48:41.332Z,101776.00
2022-09-01T16:51:23.272Z,101777.03
2022-09-01T16:54:05.381Z,101776.72
2022-09-01T16:56:47.860Z,101770.66
2022-09-01T16:59:31.223Z,101772.69
2022-09-01T17:02:21.738Z,101767.59
2022-09-01T17:05:02.657Z,101772.19
2022-09-01T17:07:45.266Z,101768.91
2022-09-01T17:10:30.499Z,101760.00
2022-09-01T17:13:17.303Z,101766.66
2022-09-01T17:15:56.086Z,101769.78
2022-09-01T17:18:34.586Z,101764.34
2022-09-01T17:21:15.365Z,101760.09
2022-09-01T17:23:56.789Z,101755.44
2022-09-01T17:26:30.678Z,101752.00
2022-09-01T17:29:10.236Z,101750.28
2022-09-01T17:31:55.884Z,101751.09
2022-09-01T17:34:41.891Z,101753.56
2022-09-01T17:37:28.912Z,101752.66
2022-09-01T17:40:15.690Z,101749.81
2022-09-01T17:42:55.021Z,101749.19
2022-09-01T17:45:31.972Z,101747.16
2022-09-01T17:48:13.371Z,101746.34
2022-09-01T17:51:01.687Z,101746.34
2022-09-01T17:53:46.367Z,101740.22
2022-09-01T17:56:34.651Z,101736.59
2022-09-01T17:59:15.565Z,101734.41
2022-09-01T18:01:58.433Z,101737.81
2022-09-01T18:04:43.604Z,101742.19
2022-09-01T18:07:28.314Z,101741.41
2022-09-01T18:10:04.547Z,101747.16
2022-09-01T18:12:41.382Z,101748.50
2022-09-01T18:15:17.809Z,101748.91
2022-09-01T18:17:55.590Z,101753.44
2022-09-01T18:20:33.815Z,101757.78
2022-09-01T18:23:09.872Z,101755.56
2022-09-01T18:25:49.069Z,101758.19
2022-09-01T18:28:23.330Z,101759.72
2022-09-01T18:31:02.049Z,101760.44
2022-09-01T18:33:45.201Z,101757.72
2022-09-01T18:36:33.792Z,101763.25
2022-09-01T18:39:12.735Z,101764.75
2022-09-01T18:42:39.646Z,101765.81
2022-09-01T18:45:25.315Z,101767.88
2022-09-01T18:48:51.423Z,101763.97
2022-09-01T18:51:37.997Z,101772.28
2022-09-01T18:54:19.844Z,101762.53
2022-09-01T18:57:05.734Z,101772.00
2022-09-01T18:59:55.443Z,101766.97
2022-09-01T19:02:53.057Z,101760.31
2022-09-01T19:05:34.200Z,101760.44
2022-09-01T19:08:17.588Z,101766.28
2022-09-01T19:10:59.183Z,101765.31
2022-09-01T19:13:47.173Z,101768.38
2022-09-01T19:16:29.898Z,101763.31
2022-09-01T19:19:15.834Z,101766.34
2022-09-01T19:21:54.692Z,101768.81
2022-09-01T19:24:34.367Z,101760.97
2022-09-01T19:27:11.829Z,101762.09
2022-09-01T19:29:49.749Z,101767.91
2022-09-01T19:32:26.925Z,101766.44
2022-09-01T19:35:10.699Z,101765.88
2022-09-01T19:37:44.426Z,101755.00
2022-09-01T19:40:24.843Z,101757.09
2022-09-01T19:43:04.281Z,101754.63
2022-09-01T19:45:48.791Z,101767.31
2022-09-01T19:48:28.008Z,101768.44
2022-09-01T19:51:06.371Z,101769.09
2022-09-01T19:53:42.944Z,101779.72
2022-09-01T19:56:21.442Z,101771.53
2022-09-01T19:59:02.286Z,101767.69
2022-09-01T20:01:41.480Z,101776.09
2022-09-01T20:04:26.901Z,101764.88
2022-09-01T20:07:02.891Z,101769.53
2022-09-01T20:09:42.071Z,101772.47
2022-09-01T20:12:23.452Z,101780.03
2022-09-01T20:15:08.414Z,101771.47
2022-09-01T20:17:47.332Z,101773.84
2022-09-01T20:20:24.274Z,101771.69
2022-09-01T20:23:04.281Z,101775.00
2022-09-01T20:25:43.089Z,101775.72
2022-09-01T20:28:26.873Z,101776.44
2022-09-01T20:31:10.991Z,101769.25
2022-09-01T20:33:48.540Z,101774.44
2022-09-01T20:36:26.407Z,101771.69
2022-09-01T20:39:23.375Z,101765.13
2022-09-01T20:42:03.464Z,101767.84
2022-09-01T20:44:43.247Z,101766.38
2022-09-01T20:47:15.960Z,101767.34
2022-09-01T20:49:49.876Z,101766.97
2022-09-01T20:52:33.292Z,101768.63
2022-09-01T20:55:14.025Z,101764.72
2022-09-01T20:57:56.065Z,101759.34
2022-09-01T21:00:31.180Z,101757.88
2022-09-01T21:03:12.001Z,101753.84
2022-09-01T21:05:53.490Z,101758.56
2022-09-01T21:08:42.619Z,101757.25
2022-09-01T21:11:24.881Z,101754.88
2022-09-01T21:14:14.020Z,101746.63
2022-09-01T21:16:58.599Z,101749.94
2022-09-01T21:19:40.769Z,101747.22
2022-09-01T21:22:18.468Z,101746.59
2022-09-01T21:24:54.238Z,101743.59
2022-09-01T21:27:40.223Z,101737.66
2022-09-01T21:30:16.009Z,101742.19
2022-09-01T21:32:49.229Z,101737.59
2022-09-01T21:35:22.899Z,101738.38
2022-09-01T21:37:55.684Z,101737.31
2022-09-01T21:40:28.589Z,101730.72
2022-09-01T21:43:04.694Z,101730.66
2022-09-01T21:45:39.054Z,101728.31
2022-09-01T21:48:12.274Z,101730.22
2022-09-01T21:50:45.447Z,101729.78
2022-09-01T21:53:18.196Z,101723.13
2022-09-01T21:55:51.000Z,101723.91
2022-09-01T21:58:25.160Z,101721.41
2022-09-01T22:00:58.736Z,101729.84
2022-09-01T22:03:31.862Z,101723.69
2022-09-01T22:06:05.665Z,101721.81
2022-09-01T22:08:38.921Z,101716.09
2022-09-01T22:11:11.701Z,101718.38
2022-09-01T22:13:45.988Z,101722.38
2022-09-01T22:16:20.193Z,101714.06
2022-09-01T22:18:53.148Z,101715.28
2022-09-01T22:21:25.818Z,101711.56
2022-09-01T22:23:59.455Z,101717.34
2022-09-01T22:26:33.461Z,101711.84
2022-09-01T22:29:10.297Z,101713.59
2022-09-01T22:31:42.978Z,101715.25
2022-09-01T22:34:15.709Z,101708.97
2022-09-01T22:36:50.636Z,101705.59
2022-09-01T22:39:25.166Z,101702.06
2022-09-01T22:41:58.435Z,101703.59
2022-09-01T22:44:32.754Z,101706.91
2022-09-01T22:47:06.014Z,101700.13
2022-09-01T22:49:38.751Z,101702.72
2022-09-01T22:52:11.441Z,101702.72
2022-09-01T22:54:46.980Z,101705.13
2022-09-01T22:57:20.202Z,101701.53
2022-09-01T22:59:54.159Z,101697.91
2022-09-01T23:02:27.266Z,101690.81
2022-09-01T23:05:00.364Z,101696.56
2022-09-01T23:07:33.380Z,101692.59
2022-09-01T23:10:09.420Z,101678.22
2022-09-01T23:12:42.288Z,101683.13
2022-09-01T23:15:16.434Z,101681.56
2022-09-01T23:17:49.288Z,101684.81
2022-09-01T23:20:22.362Z,101679.31
2022-09-01T23:22:55.145Z,101686.34
2022-09-01T23:25:28.380Z,101672.34
2022-09-01T23:28:01.289Z,101678.41
2022-09-01T23:30:35.872Z,101671.94
2022-09-01T23:33:08.633Z,101674.06
2022-09-01T23:35:42.286Z,101663.94
2022-09-01T23:38:16.467Z,101665.03
2022-09-01T23:40:52.402Z,101665.38
2022-09-01T23:43:27.521Z,101666.88
2022-09-01T23:46:01.870Z,101654.44
2022-09-01T23:48:35.205Z,101653.53
2022-09-01T23:51:11.691Z,101657.53
2022-09-01T23:53:45.123Z,101658.38
2022-09-01T23:56:19.761Z,101662.34
2022-09-01T23:58:53.051Z,101650.50
